Time;durP1;ratioP1;P1;durP2;ratioP2;P2;SDS_P1;SDS_P2;PMS_P1;PMS_P2;Temp;Humidity;BMP_temperature;BMP_pressure;BME280_temperature;BME280_humidity;BME280_pressure;Samples;Min_cycle;Max_cycle;Signal;HPM_P1;HPM_P2
2024/01/04 00:01:41;;;;;;;1.60;0.57;;;;;;;11.26;75.69;98836.56;4983970;28;20202;-79
2024/01/04 00:05:06;;;;;;;3.17;0.90;;;;;;;11.25;76.12;98815.56;4963072;28;20210;-76
2024/01/04 00:08:35;;;;;;;;;;;;;;;;;;;;;
2024/01/04 00:11:47;;;;;;;5.23;0.80;;;;;;;11.05;77.15;98820.69;4877088;29;20209;-77
2024/01/04 00:14:34;;;;;;;3.93;0.87;;;;;;;11.02;77.13;98833.50;4891824;29;20302;-77
2024/01/04 00:17:05;;;;;;;4.07;1.10;;;;;;;11.04;76.20;98827.00;4906034;29;20718;-76
2024/01/04 00:19:38;;;;;;;4.13;1.10;;;;;;;11.06;75.78;98830.31;4942405;28;20301;-77
2024/01/04 00:22:13;;;;;;;4.27;0.80;;;;;;;11.05;75.35;98823.34;4998165;28;20201;-77
2024/01/04 00:24:55;;;;;;;2.87;0.90;;;;;;;11.08;75.24;98838.88;5006778;28;20224;-77
2024/01/04 00:27:33;;;;;;;4.93;0.70;;;;;;;11.14;74.94;98837.31;5006952;28;20293;-77
2024/01/04 00:30:24;;;;;;;6.57;1.00;;;;;;;11.17;74.77;98831.63;4998298;28;20574;-77
2024/01/04 00:33:12;;;;;;;7.30;1.27;;;;;;;11.16;74.50;98840.59;5005087;28;20201;-77
2024/01/04 00:35:45;;;;;;;5.77;1.37;;;;;;;11.13;74.28;98847.09;5003979;28;20213;-76
2024/01/04 00:38:32;;;;;;;5.93;1.30;;;;;;;11.12;74.48;98860.53;5005959;28;20212;-76
2024/01/04 00:41:02;;;;;;;8.63;1.57;;;;;;;11.10;74.41;98866.03;5007235;28;20295;-76
2024/01/04 00:43:33;;;;;;;4.77;0.97;;;;;;;11.10;74.49;98862.56;5007430;28;20304;-77
2024/01/04 00:46:08;;;;;;;5.90;1.10;;;;;;;11.11;74.55;98872.16;4996932;28;20275;-77
2024/01/04 00:48:44;;;;;;;5.63;1.07;;;;;;;11.05;74.75;98870.28;5001798;28;20230;-77
2024/01/04 00:51:23;;;;;;;6.03;0.90;;;;;;;11.08;75.17;98864.59;5003738;28;20691;-77
2024/01/04 00:53:51;;;;;;;4.50;0.83;;;;;;;11.10;75.29;98867.84;5005236;28;20233;-77
2024/01/04 00:56:34;;;;;;;3.57;0.67;;;;;;;11.06;75.79;98869.25;5001267;28;20223;-76
2024/01/04 00:59:11;;;;;;;4.70;1.03;;;;;;;11.01;75.87;98869.81;5000431;28;20288;-77
2024/01/04 01:01:49;;;;;;;4.23;0.63;;;;;;;10.98;76.35;98872.03;4996633;28;20236;-77
2024/01/04 01:04:17;;;;;;;2.40;0.60;;;;;;;10.90;76.39;98867.69;5003789;28;20302;-76
2024/01/04 01:06:50;;;;;;;4.93;1.40;;;;;;;10.89;76.63;98885.44;5006207;28;20210;-77
2024/01/04 01:09:18;;;;;;;4.70;0.93;;;;;;;10.86;76.86;98872.53;5006188;28;20210;-77
2024/01/04 01:11:57;;;;;;;4.60;1.20;;;;;;;10.83;77.50;98870.25;4998269;28;20213;-76
2024/01/04 01:14:26;;;;;;;4.20;0.67;;;;;;;10.76;77.71;98877.31;5000965;28;20610;-77
2024/01/04 01:21:17;;;;;;;3.43;0.97;;;;;;;10.74;77.76;98878.50;5002664;28;20336;-76
2024/01/04 01:24:56;;;;;;;;;;;;;;;;;;;;;
2024/01/04 01:27:34;;;;;;;4.57;0.80;;;;;;;10.83;77.64;98885.34;4996782;28;20216;-77
2024/01/04 01:30:05;;;;;;;3.43;1.17;;;;;;;10.86;77.47;98885.78;4999136;28;20279;-76
2024/01/04 01:32:41;;;;;;;3.67;0.70;;;;;;;10.88;77.52;98894.38;4995977;28;20890;-77
2024/01/04 01:35:33;;;;;;;3.53;0.67;;;;;;;10.86;77.38;98888.44;4999746;28;20243;-78
2024/01/04 01:38:43;;;;;;;3.57;0.87;;;;;;;10.81;77.57;98909.41;4997815;28;20615;-77
2024/01/04 01:41:57;;;;;;;2.37;0.60;;;;;;;10.78;77.90;98909.78;4993884;28;20603;-77
2024/01/04 01:44:53;;;;;;;4.17;1.03;;;;;;;10.77;78.13;98913.44;4997306;28;20212;-76
2024/01/04 01:50:59;;;;;;;3.80;0.70;;;;;;;10.86;77.73;98914.97;4999681;28;20211;-77
2024/01/04 01:53:28;;;;;;;4.60;0.80;;;;;;;10.94;76.84;98924.63;5000966;28;20205;-77
2024/01/04 01:56:47;;;;;;;4.40;1.30;;;;;;;10.96;76.69;98919.13;4998982;28;20208;-77
2024/01/04 01:59:20;;;;;;;3.07;0.90;;;;;;;10.94;76.00;98928.09;4995290;28;21023;-76
2024/01/04 02:02:04;;;;;;;3.40;0.70;;;;;;;10.96;76.27;98927.09;4997783;28;20674;-77
2024/01/04 02:11:50;;;;;;;4.30;0.73;;;;;;;10.94;75.71;98949.31;4937336;28;20218;-77
2024/01/04 02:14:43;;;;;;;3.23;0.90;;;;;;;10.97;75.33;98955.25;4995094;28;20734;-77
2024/01/04 02:17:49;;;;;;;2.80;0.70;;;;;;;10.98;74.74;98960.38;4993013;28;20240;-77
2024/01/04 02:20:24;;;;;;;3.87;0.77;;;;;;;10.98;74.10;98959.56;4996675;28;20259;-78
2024/01/04 02:23:23;;;;;;;5.07;0.60;;;;;;;11.04;73.46;98964.09;5000821;28;20212;-76
2024/01/04 02:25:52;;;;;;;3.00;0.50;;;;;;;11.04;73.22;98958.81;4997083;28;20212;-79
2024/01/04 02:28:21;;;;;;;4.10;0.60;;;;;;;11.02;73.57;98958.16;4996957;28;20348;-79
2024/01/04 02:31:21;;;;;;;2.67;0.67;;;;;;;11.01;73.56;98952.03;4993266;28;20344;-76
2024/01/04 02:36:54;;;;;;;2.67;0.97;;;;;;;10.89;74.02;98953.53;5000284;28;20651;-77
2024/01/04 02:39:46;;;;;;;2.73;0.57;;;;;;;10.83;74.52;98959.56;4995229;28;20574;-77
2024/01/04 02:42:35;;;;;;;3.13;0.60;;;;;;;10.87;74.72;98963.50;4994688;28;20292;-76
2024/01/04 02:45:48;;;;;;;4.67;0.57;;;;;;;10.82;74.29;98965.88;4941413;28;20750;-76
2024/01/04 02:49:28;;;;;;;2.67;0.80;;;;;;;10.74;73.69;98982.72;4939869;28;20216;-76
2024/01/04 02:52:31;;;;;;;2.97;0.50;;;;;;;10.66;73.29;98980.19;4878017;29;20392;-76
2024/01/04 02:55:23;;;;;;;1.77;0.30;;;;;;;10.61;73.34;98971.97;4938756;29;20236;-77
2024/01/04 02:58:06;;;;;;;2.03;0.50;;;;;;;10.58;73.62;98982.94;4945152;28;20666;-76
2024/01/04 03:04:55;;;;;;;1.80;0.30;;;;;;;10.57;73.00;98978.63;4887697;29;20713;-76
2024/01/04 03:07:56;;;;;;;2.73;0.30;;;;;;;10.56;72.92;98982.28;4935613;28;20246;-77
2024/01/04 03:14:04;;;;;;;1.27;0.40;;;;;;;10.54;73.83;99000.22;4942811;28;20218;-77
2024/01/04 03:17:49;;;;;;;1.53;0.33;;;;;;;10.54;74.37;98992.25;4901275;29;20354;-76
2024/01/04 03:25:01;;;;;;;1.63;0.30;;;;;;;10.49;74.77;98997.28;4943191;29;20807;-76
2024/01/04 03:28:30;;;;;;;3.10;0.33;;;;;;;10.43;74.92;99003.31;5008368;28;20211;-76
2024/01/04 03:32:09;;;;;;;1.97;0.40;;;;;;;10.43;74.91;99008.63;5003241;28;20210;-77
2024/01/04 03:39:34;;;;;;;2.00;0.67;;;;;;;10.41;76.12;99016.75;4936950;28;20250;-77
2024/01/04 03:43:10;;;;;;;;;;;;;;;;;;;;;
2024/01/04 03:49:59;;;;;;;0.97;0.30;;;;;;;10.39;77.43;99028.53;4990640;28;20237;-77
2024/01/04 03:53:21;;;;;;;2.60;0.50;;;;;;;10.39;77.42;99028.53;4893112;29;20219;-77
2024/01/04 03:59:49;;;;;;;1.43;0.50;;;;;;;10.35;78.11;99021.94;5006755;28;20296;-76
2024/01/04 04:02:35;;;;;;;1.53;0.30;;;;;;;10.27;78.04;99017.56;4988076;28;20212;-76
2024/01/04 05:56:00;;;;;;;0.80;0.30;;;;;;;10.59;73.38;99231.06;4952664;28;20267;-76
2024/01/04 06:10:53;;;;;;;1.67;0.30;;;;;;;10.63;73.09;99281.94;4938036;28;20205;-77
2024/01/04 06:14:30;;;;;;;1.70;0.57;;;;;;;10.64;73.26;99287.06;4982821;28;20657;-76
2024/01/04 07:04:05;;;;;;;;;;;;;;;;;;;;;
2024/01/04 07:31:17;;;;;;;1.63;0.67;;;;;;;10.79;76.82;99401.13;4291808;26;20234;-78
2024/01/04 07:33:46;;;;;;;5.77;0.80;;;;;;;10.79;76.82;99409.91;4982284;28;20217;-67
2024/01/04 07:36:15;;;;;;;3.27;0.60;;;;;;;10.83;76.75;99405.88;4982192;28;20219;-66
2024/01/04 07:38:44;;;;;;;5.70;0.80;;;;;;;10.92;76.26;99414.59;4982114;28;20244;-67
2024/01/04 07:41:13;;;;;;;4.23;0.73;;;;;;;10.97;76.11;99419.41;4981685;28;20242;-67
2024/01/04 07:43:42;;;;;;;3.70;0.70;;;;;;;11.04;75.83;99420.34;4983911;28;20583;-67
2024/01/04 07:46:10;;;;;;;5.00;0.83;;;;;;;11.02;76.60;99422.34;4982651;28;20575;-66
2024/01/04 07:48:40;;;;;;;3.17;0.53;;;;;;;10.97;76.98;99422.06;4982466;28;20244;-66
2024/01/04 07:51:09;;;;;;;3.13;0.80;;;;;;;10.98;77.60;99429.84;4981705;28;20300;-67
2024/01/04 07:53:40;;;;;;;4.87;0.90;;;;;;;10.98;78.25;99434.31;4987651;28;20209;-67
2024/01/04 07:56:09;;;;;;;3.33;0.70;;;;;;;10.94;78.43;99437.31;4983048;28;20215;-66
2024/01/04 07:58:38;;;;;;;6.23;0.70;;;;;;;10.96;78.65;99447.75;4983030;28;20230;-66
2024/01/04 08:01:07;;;;;;;4.43;0.60;;;;;;;10.98;78.80;99447.59;4979944;28;21136;-66
2024/01/04 08:03:36;;;;;;;4.73;0.67;;;;;;;11.00;78.87;99450.84;4984885;28;20303;-66
2024/01/04 08:06:07;;;;;;;1.53;0.70;;;;;;;11.02;78.46;99455.00;4983302;28;20326;-67
2024/01/04 08:08:36;;;;;;;6.67;3.30;;;;;;;10.97;78.98;99456.53;4983687;28;20320;-66
2024/01/04 08:11:05;;;;;;;2.97;1.00;;;;;;;10.93;78.82;99454.22;4982974;28;20209;-66
2024/01/04 08:13:33;;;;;;;7.67;1.17;;;;;;;10.97;78.72;99456.53;4981097;28;20220;-66
2024/01/04 08:16:02;;;;;;;2.17;0.60;;;;;;;10.98;78.13;99460.84;4981692;28;20209;-67
2024/01/04 08:18:32;;;;;;;4.33;1.00;;;;;;;10.99;77.75;99465.97;4982725;28;20746;-68
2024/01/04 08:21:03;;;;;;;2.57;0.77;;;;;;;10.90;77.00;99473.16;4983923;28;21103;-71
2024/01/04 08:23:33;;;;;;;3.97;0.83;;;;;;;10.93;76.86;99477.25;4980607;28;20236;-67
2024/01/04 08:26:05;;;;;;;3.57;0.73;;;;;;;10.87;77.01;99486.75;4979970;28;20205;-66
2024/01/04 08:28:34;;;;;;;6.30;1.20;;;;;;;10.92;76.76;99484.41;4980765;28;20213;-67
2024/01/04 08:31:03;;;;;;;4.77;1.17;;;;;;;10.92;76.91;99479.09;4981782;28;20682;-67
2024/01/04 08:33:32;;;;;;;4.70;1.13;;;;;;;10.86;77.13;99482.44;4980144;28;20307;-69
2024/01/04 08:36:03;;;;;;;6.67;1.10;;;;;;;10.90;77.12;99482.94;4982962;28;20219;-69
2024/01/04 08:38:35;;;;;;;7.03;1.10;;;;;;;10.85;76.83;99496.69;4985912;28;20222;-67
2024/01/04 08:41:04;;;;;;;7.33;1.57;;;;;;;10.91;76.60;99505.78;4983447;28;20291;-67
2024/01/04 08:43:33;;;;;;;4.50;1.20;;;;;;;10.97;76.25;99501.63;4983588;28;20568;-67
2024/01/04 08:46:02;;;;;;;5.93;1.33;;;;;;;10.97;76.26;99514.88;4987525;28;20201;-66
2024/01/04 08:48:31;;;;;;;9.17;1.33;;;;;;;10.96;76.00;99514.06;4988382;28;20311;-67
2024/01/04 08:51:00;;;;;;;6.97;1.33;;;;;;;11.02;75.58;99525.78;4987816;28;20320;-66
2024/01/04 08:53:29;;;;;;;7.00;1.40;;;;;;;11.00;75.41;99535.75;4987289;28;20222;-66
2024/01/04 08:55:59;;;;;;;9.60;1.63;;;;;;;10.96;75.36;99529.16;4987036;28;20698;-67
2024/01/04 08:58:28;;;;;;;5.87;1.10;;;;;;;10.98;74.83;99530.63;4988169;28;20219;-66
2024/01/04 09:00:57;;;;;;;5.93;1.63;;;;;;;10.92;74.72;99533.97;4986715;28;20797;-66
2024/01/04 09:03:26;;;;;;;7.30;1.20;;;;;;;10.96;74.82;99545.06;4987455;28;20215;-65
2024/01/04 09:05:54;;;;;;;9.63;1.87;;;;;;;10.97;74.55;99546.72;4988129;28;20681;-66
2024/01/04 09:08:23;;;;;;;8.43;1.40;;;;;;;10.90;74.97;99547.41;4987659;28;20211;-66
2024/01/04 09:10:52;;;;;;;5.67;1.20;;;;;;;10.89;75.08;99545.75;4986779;28;20590;-67
2024/01/04 09:13:23;;;;;;;8.63;1.40;;;;;;;10.92;75.36;99549.88;4986560;28;20214;-66
2024/01/04 09:15:51;;;;;;;12.40;2.40;;;;;;;10.89;75.50;99561.69;4987922;28;20575;-66
2024/01/04 09:18:20;;;;;;;7.20;1.73;;;;;;;10.87;75.63;99568.16;4985991;28;20219;-68
2024/01/04 09:20:49;;;;;;;8.97;1.63;;;;;;;10.89;75.47;99569.63;4986731;28;20268;-67
2024/01/04 09:23:18;;;;;;;9.23;1.33;;;;;;;10.96;75.17;99576.88;4987496;28;20994;-67
2024/01/04 09:25:46;;;;;;;14.07;2.40;;;;;;;10.99;74.82;99584.53;4987636;28;20295;-67
2024/01/04 09:28:15;;;;;;;9.00;1.93;;;;;;;11.00;74.84;99586.16;4985338;28;20216;-68
2024/01/04 09:30:46;;;;;;;10.13;1.63;;;;;;;11.00;74.87;99578.19;4985477;28;20667;-67
2024/01/04 09:33:15;;;;;;;9.60;1.60;;;;;;;11.09;74.49;99588.59;4985375;28;20224;-67
2024/01/04 09:35:47;;;;;;;8.80;1.70;;;;;;;11.19;74.09;99594.53;4988009;28;20270;-66
2024/01/04 09:38:16;;;;;;;9.03;1.43;;;;;;;11.19;73.86;99599.00;4986681;28;20213;-67
2024/01/04 09:40:44;;;;;;;12.10;2.80;;;;;;;11.34;73.51;99602.59;4984358;28;20231;-65
2024/01/04 09:43:16;;;;;;;14.17;2.00;;;;;;;11.41;72.61;99608.84;4985621;28;20216;-67
2024/01/04 09:45:47;;;;;;;14.53;2.80;;;;;;;11.28;72.84;99603.28;4985272;28;20260;-66
2024/01/04 09:48:20;;;;;;;14.00;2.23;;;;;;;11.34;72.53;99618.53;4985433;28;20208;-65
2024/01/04 09:50:59;;;;;;;9.97;2.20;;;;;;;11.40;72.22;99620.47;4985999;28;20221;-66
2024/01/04 09:53:44;;;;;;;11.20;2.10;;;;;;;11.42;72.24;99626.44;4986745;28;20229;-66
2024/01/04 09:56:15;;;;;;;7.93;1.93;;;;;;;11.50;72.05;99628.22;4985146;28;20687;-66
2024/01/04 09:58:44;;;;;;;8.40;1.97;;;;;;;11.57;71.95;99635.31;4985772;28;20206;-67
2024/01/04 10:01:19;;;;;;;12.77;2.00;;;;;;;11.62;71.32;99638.25;4985525;28;20233;-69
2024/01/04 10:03:51;;;;;;;9.63;1.97;;;;;;;11.63;71.03;99642.56;4985203;28;20201;-67
2024/01/04 10:06:25;;;;;;;7.73;1.80;;;;;;;11.61;71.09;99641.91;4984809;28;20211;-67
2024/01/04 10:09:12;;;;;;;11.10;1.97;;;;;;;11.64;71.30;99641.56;4986671;28;20212;-69
2024/01/04 10:11:52;;;;;;;6.87;1.40;;;;;;;11.92;70.85;99633.13;4986449;28;20293;-68
2024/01/04 10:14:22;;;;;;;9.13;1.70;;;;;;;12.19;69.54;99635.25;4986203;28;20221;-66
2024/01/04 10:16:53;;;;;;;10.77;1.87;;;;;;;12.64;68.33;99641.50;4985907;28;20214;-67
2024/01/04 10:19:22;;;;;;;11.43;1.47;;;;;;;13.11;65.94;99631.31;4984550;28;20214;-66
2024/01/04 10:21:51;;;;;;;13.57;2.90;;;;;;;13.12;64.67;99630.31;4983860;28;20213;-67
2024/01/04 10:24:26;;;;;;;11.07;2.47;;;;;;;13.15;64.62;99629.97;4985025;28;20331;-66
2024/01/04 10:26:57;;;;;;;10.13;2.27;;;;;;;13.18;64.09;99637.59;4984506;28;20637;-68
2024/01/04 10:29:27;;;;;;;11.87;2.33;;;;;;;13.06;63.40;99632.88;4986063;28;20681;-67
2024/01/04 10:32:01;;;;;;;13.17;2.27;;;;;;;13.08;63.00;99626.38;4984567;28;20677;-68
2024/01/04 10:34:29;;;;;;;10.97;2.50;;;;;;;12.94;63.25;99621.88;4983288;28;20206;-67
2024/01/04 10:37:09;;;;;;;10.63;2.23;;;;;;;12.68;64.11;99618.84;4986133;28;20274;-67
2024/01/04 10:39:38;;;;;;;13.40;2.30;;;;;;;12.56;64.18;99636.25;4984850;28;20239;-67
2024/01/04 10:42:09;;;;;;;17.67;2.80;;;;;;;14.15;61.45;99623.91;4985067;28;20210;-67
2024/01/04 10:44:39;;;;;;;12.73;2.40;;;;;;;17.28;51.79;99631.44;4986063;28;20209;-66
2024/01/04 10:47:14;;;;;;;10.70;2.73;;;;;;;18.07;48.19;99616.00;4984235;28;20218;-66
2024/01/04 10:49:45;;;;;;;10.53;2.20;;;;;;;18.93;45.52;99630.34;4984974;28;20241;-68
2024/01/04 10:52:19;;;;;;;8.40;2.00;;;;;;;18.68;45.72;99629.56;4983983;28;20462;-67
2024/01/04 10:54:55;;;;;;;9.57;2.30;;;;;;;18.01;47.60;99631.09;4983091;28;20345;-67
2024/01/04 10:57:25;;;;;;;7.73;2.43;;;;;;;18.49;47.21;99627.84;4987229;28;20206;-67
2024/01/04 10:59:54;;;;;;;8.10;2.03;;;;;;;18.71;46.28;99631.81;4985825;28;20703;-67
2024/01/04 11:02:27;;;;;;;13.65;2.50;;;;;;;19.35;45.18;99643.97;4984228;28;20272;-66
2024/01/04 11:04:55;;;;;;;7.57;2.17;;;;;;;19.00;45.42;99636.47;4983636;28;20210;-67
2024/01/04 11:07:27;;;;;;;9.32;2.50;;;;;;;18.36;46.35;99643.03;4988452;28;20324;-68
2024/01/04 11:09:56;;;;;;;8.60;1.98;;;;;;;17.86;47.10;99646.66;4987806;28;20214;-68
2024/01/04 11:12:30;;;;;;;8.00;2.33;;;;;;;18.02;46.89;99654.22;4990365;28;20210;-66
2024/01/04 11:15:01;;;;;;;8.70;2.37;;;;;;;17.87;46.53;99641.09;4988370;28;20202;-67
2024/01/04 11:17:48;;;;;;;5.80;2.13;;;;;;;18.48;45.61;99644.97;4987459;28;20214;-66
2024/01/04 11:20:25;;;;;;;10.63;2.50;;;;;;;19.00;44.25;99635.63;4988200;28;20296;-65
2024/01/04 11:23:20;;;;;;;10.27;2.07;;;;;;;19.03;43.19;99641.41;4988004;28;20258;-67
2024/01/04 11:26:10;;;;;;;9.53;2.47;;;;;;;20.08;41.40;99643.81;4988409;28;20202;-67
2024/01/04 11:28:39;;;;;;;9.10;2.70;;;;;;;20.86;40.12;99635.53;4989341;28;20198;-67
2024/01/04 11:31:08;;;;;;;8.63;2.10;;;;;;;22.26;37.85;99629.72;4987484;28;20210;-66
2024/01/04 11:33:41;;;;;;;10.70;2.27;;;;;;;23.27;35.68;99631.28;4988557;28;20260;-68
2024/01/04 11:36:18;;;;;;;8.70;2.07;;;;;;;22.87;36.26;99628.81;4987723;28;20206;-68
2024/01/04 11:38:50;;;;;;;8.57;2.37;;;;;;;20.38;39.48;99638.44;4989349;28;20855;-68
2024/01/04 11:41:19;;;;;;;11.50;2.53;;;;;;;18.72;43.01;99645.03;4987055;28;20276;-69
2024/01/04 11:43:50;;;;;;;6.37;1.60;;;;;;;17.41;45.30;99652.03;4985842;28;20211;-66
2024/01/04 11:46:21;;;;;;;9.47;2.37;;;;;;;16.28;47.42;99633.59;4988013;28;20298;-68
2024/01/04 11:49:04;;;;;;;8.13;1.90;;;;;;;15.48;49.59;99639.81;4988091;28;20198;-67
2024/01/04 11:51:44;;;;;;;7.67;1.60;;;;;;;14.80;51.54;99641.47;4986653;28;20210;-67
2024/01/04 11:54:17;;;;;;;9.57;1.80;;;;;;;14.42;52.92;99641.84;4988098;28;20206;-67
2024/01/04 11:56:48;;;;;;;4.53;1.17;;;;;;;13.97;53.70;99636.88;4988838;28;20213;-67
2024/01/04 11:59:17;;;;;;;4.00;0.87;;;;;;;13.62;54.82;99642.03;4986988;28;20214;-67
2024/01/04 12:01:47;;;;;;;6.13;0.93;;;;;;;13.30;54.77;99634.44;4987099;28;20237;-66
2024/01/04 12:04:18;;;;;;;4.60;1.00;;;;;;;13.14;55.81;99636.31;4988667;28;20212;-67
2024/01/04 12:06:49;;;;;;;5.43;0.90;;;;;;;12.89;55.50;99640.22;4986727;28;20304;-67
2024/01/04 12:09:19;;;;;;;7.90;1.50;;;;;;;12.79;56.34;99634.34;4989162;28;20214;-67
2024/01/04 12:11:55;;;;;;;7.53;1.53;;;;;;;12.61;56.17;99624.06;4987100;28;20240;-66
2024/01/04 12:14:26;;;;;;;5.20;1.07;;;;;;;12.54;56.94;99630.28;4987763;28;20283;-67
2024/01/04 12:16:55;;;;;;;5.27;1.10;;;;;;;12.48;57.51;99633.69;4987487;28;20296;-64
2024/01/04 12:19:25;;;;;;;6.17;1.33;;;;;;;12.42;56.98;99622.75;4987222;28;20257;-66
2024/01/04 12:22:08;;;;;;;5.60;1.57;;;;;;;12.35;57.66;99621.81;4985545;28;20684;-66
2024/01/04 12:24:38;;;;;;;6.77;1.07;;;;;;;12.34;58.46;99628.13;4988028;28;20227;-68
2024/01/04 12:27:07;;;;;;;4.40;0.90;;;;;;;12.37;59.40;99630.44;4987449;28;20216;-67
2024/01/04 12:29:36;;;;;;;8.73;1.37;;;;;;;12.38;59.84;99634.75;4987103;28;20740;-67
2024/01/04 12:32:05;;;;;;;8.03;1.70;;;;;;;12.41;59.60;99620.25;4986832;28;20214;-67
2024/01/04 12:34:35;;;;;;;5.90;1.50;;;;;;;12.38;60.18;99629.44;4987010;28;20668;-66
2024/01/04 12:37:06;;;;;;;7.60;1.40;;;;;;;12.40;60.10;99638.03;4987690;28;20292;-66
2024/01/04 12:39:35;;;;;;;6.50;1.20;;;;;;;12.28;61.19;99625.38;4987450;28;20582;-67
2024/01/04 12:42:04;;;;;;;8.80;2.33;;;;;;;12.18;61.40;99636.25;4986871;28;20237;-67
2024/01/04 12:44:33;;;;;;;8.67;1.23;;;;;;;12.07;60.90;99644.63;4986554;28;20210;-67
2024/01/04 12:47:05;;;;;;;4.33;1.20;;;;;;;11.96;61.04;99645.06;4986618;28;20202;-67
2024/01/04 12:49:36;;;;;;;5.23;0.80;;;;;;;11.82;61.02;99657.25;4987555;28;20260;-67
2024/01/04 12:52:12;;;;;;;4.93;1.20;;;;;;;11.72;61.79;99661.09;4986978;28;20305;-66
2024/01/04 12:54:41;;;;;;;4.33;0.90;;;;;;;11.66;62.10;99644.88;4986772;28;20213;-66
2024/01/04 12:57:10;;;;;;;6.30;1.30;;;;;;;11.68;62.46;99656.16;4987954;28;20232;-66
2024/01/04 12:59:38;;;;;;;3.37;0.80;;;;;;;11.69;62.75;99654.34;4984862;28;20206;-66
2024/01/04 13:02:07;;;;;;;4.80;1.00;;;;;;;11.68;63.10;99642.88;4985816;28;20266;-67
2024/01/04 13:04:43;;;;;;;4.83;0.90;;;;;;;11.67;62.74;99651.03;4987092;28;20688;-67
2024/01/04 13:07:12;;;;;;;4.90;1.30;;;;;;;11.63;62.73;99652.34;4984714;28;20206;-67
2024/01/04 13:09:41;;;;;;;4.90;1.20;;;;;;;11.63;62.96;99665.63;4986137;28;20293;-67
2024/01/04 13:12:10;;;;;;;4.27;1.07;;;;;;;11.59;63.39;99675.81;4986245;28;20241;-65
2024/01/04 13:14:39;;;;;;;7.57;1.50;;;;;;;11.61;63.35;99681.75;4986880;28;20238;-66
2024/01/04 13:17:08;;;;;;;6.50;1.40;;;;;;;11.62;63.63;99686.06;4985475;28;20657;-67
2024/01/04 13:19:41;;;;;;;8.50;1.00;;;;;;;11.64;63.15;99691.19;4987021;28;20213;-66
2024/01/04 13:22:10;;;;;;;5.43;1.30;;;;;;;11.66;62.97;99676.75;4983550;28;20222;-65
2024/01/04 13:24:39;;;;;;;6.33;1.63;;;;;;;11.72;62.92;99696.47;4986456;28;20229;-66
2024/01/04 13:27:08;;;;;;;9.70;1.73;;;;;;;11.79;63.04;99696.63;4986799;28;20210;-66
2024/01/04 13:29:37;;;;;;;8.17;2.57;;;;;;;11.78;62.77;99695.81;4986539;28;20210;-66
2024/01/04 13:32:06;;;;;;;14.50;1.93;;;;;;;11.82;62.94;99685.66;4984300;28;20214;-70
2024/01/04 13:34:35;;;;;;;8.90;2.47;;;;;;;11.84;63.46;99696.94;4987101;28;20214;-66
2024/01/04 13:37:06;;;;;;;12.60;2.97;;;;;;;11.91;63.66;99692.56;4986919;28;20285;-66
2024/01/04 13:39:35;;;;;;;8.10;1.70;;;;;;;12.00;63.79;99695.00;4987193;28;20206;-67
2024/01/04 13:42:04;;;;;;;11.77;1.53;;;;;;;12.06;63.78;99688.16;4986288;28;20226;-67
2024/01/04 13:44:36;;;;;;;11.33;2.03;;;;;;;12.14;64.03;99690.75;4986420;28;20198;-67
2024/01/04 13:47:05;;;;;;;8.03;1.40;;;;;;;12.20;63.58;99681.25;4986645;28;20198;-66
2024/01/04 13:49:36;;;;;;;11.13;1.90;;;;;;;12.17;63.05;99687.75;4988698;28;20238;-66
2024/01/04 13:52:06;;;;;;;13.13;2.13;;;;;;;12.19;63.04;99677.78;4986298;28;20206;-66
2024/01/04 13:54:35;;;;;;;10.80;2.23;;;;;;;12.11;63.48;99685.81;4984444;28;20206;-66
2024/01/04 13:57:04;;;;;;;11.03;2.40;;;;;;;12.02;63.07;99689.53;4986856;28;20212;-67
2024/01/04 13:59:33;;;;;;;10.43;1.90;;;;;;;11.94;62.80;99695.72;4985731;28;20581;-67
2024/01/04 14:02:02;;;;;;;9.17;1.60;;;;;;;11.84;63.54;99707.56;4984806;28;20232;-67
2024/01/04 14:04:31;;;;;;;12.00;2.00;;;;;;;11.87;64.32;99701.91;4987833;28;20214;-66
2024/01/04 14:07:00;;;;;;;8.70;1.83;;;;;;;11.96;64.24;99714.16;4985576;28;20635;-67
2024/01/04 14:09:33;;;;;;;11.70;2.37;;;;;;;12.00;64.83;99702.16;4986258;28;20213;-66
2024/01/04 14:12:06;;;;;;;10.33;2.33;;;;;;;11.98;65.13;99696.19;4985037;28;20545;-66
2024/01/04 14:14:35;;;;;;;9.63;1.27;;;;;;;11.87;65.14;99694.78;4987450;28;20216;-66
2024/01/04 14:17:04;;;;;;;8.53;1.20;;;;;;;11.79;64.92;99699.28;4987612;28;20276;-67
2024/01/04 14:19:32;;;;;;;8.70;1.60;;;;;;;11.70;64.96;99688.66;4987359;28;20304;-65
2024/01/04 14:22:01;;;;;;;5.20;1.43;;;;;;;11.64;64.89;99705.31;4986139;28;20245;-66
2024/01/04 14:24:31;;;;;;;10.70;1.60;;;;;;;11.50;64.31;99703.38;4986826;28;20596;-67
2024/01/04 14:27:01;;;;;;;10.80;1.17;;;;;;;11.40;64.69;99707.25;4986682;28;20292;-67
2024/01/04 14:29:29;;;;;;;7.90;2.00;;;;;;;11.34;65.23;99714.06;4987834;28;20561;-67
2024/01/04 14:31:59;;;;;;;5.93;1.67;;;;;;;11.35;65.44;99723.66;4987546;28;20214;-66
2024/01/04 14:34:27;;;;;;;14.17;1.97;;;;;;;11.35;65.05;99718.34;4986386;28;20214;-67
2024/01/04 14:36:56;;;;;;;7.17;1.70;;;;;;;11.36;65.11;99717.34;4986184;28;20202;-67
2024/01/04 14:39:24;;;;;;;13.53;2.10;;;;;;;11.31;65.14;99720.53;4985281;28;20735;-66
2024/01/04 14:41:54;;;;;;;6.17;1.80;;;;;;;11.25;65.50;99731.03;4985512;28;20217;-67
2024/01/04 14:44:26;;;;;;;7.27;1.50;;;;;;;11.24;65.66;99730.19;4987093;28;20698;-67
2024/01/04 14:46:56;;;;;;;9.53;2.10;;;;;;;11.23;65.80;99722.38;4987875;28;20212;-67
2024/01/04 14:49:25;;;;;;;9.00;1.90;;;;;;;11.26;65.50;99722.84;4987219;28;20705;-67
2024/01/04 14:51:57;;;;;;;6.97;1.60;;;;;;;11.29;65.32;99727.00;4984456;28;20210;-68
2024/01/04 14:54:26;;;;;;;9.37;1.50;;;;;;;11.32;65.29;99726.69;4985537;28;20289;-66
2024/01/04 14:56:56;;;;;;;7.47;1.63;;;;;;;11.32;65.21;99726.69;4985998;28;20214;-66
2024/01/04 14:59:25;;;;;;;10.57;2.03;;;;;;;11.32;64.93;99729.34;4987840;28;20213;-66
2024/01/04 15:01:56;;;;;;;10.50;2.17;;;;;;;11.27;64.88;99724.53;4986616;28;20283;-66
2024/01/04 15:04:26;;;;;;;6.27;1.63;;;;;;;11.22;65.29;99731.34;4985987;28;20743;-69
2024/01/04 15:06:54;;;;;;;7.40;1.50;;;;;;;11.17;65.74;99726.53;4986247;28;20214;-66
2024/01/04 15:09:23;;;;;;;9.63;2.20;;;;;;;11.15;65.93;99730.38;4984765;28;20214;-67
2024/01/04 15:12:00;;;;;;;8.53;1.67;;;;;;;11.15;65.92;99730.38;4984401;28;20220;-67
2024/01/04 15:14:30;;;;;;;11.63;1.90;;;;;;;11.18;66.01;99730.00;4987816;28;20580;-68
2024/01/04 15:16:59;;;;;;;9.63;2.27;;;;;;;11.14;66.24;99731.38;4984770;28;20206;-66
2024/01/04 15:19:27;;;;;;;12.63;2.97;;;;;;;11.09;66.59;99737.16;4985653;28;20776;-67
2024/01/04 15:21:56;;;;;;;11.53;1.97;;;;;;;11.08;66.95;99734.72;4986264;28;20213;-66
2024/01/04 15:24:26;;;;;;;7.80;1.60;;;;;;;11.07;67.02;99738.34;4986838;28;20313;-67
2024/01/04 15:26:54;;;;;;;12.47;1.70;;;;;;;11.03;67.20;99735.19;4985837;28;20211;-67
2024/01/04 15:29:26;;;;;;;11.50;1.67;;;;;;;11.01;67.60;99739.00;4985588;28;20214;-67
2024/01/04 15:31:59;;;;;;;7.73;1.87;;;;;;;11.01;67.61;99734.53;4986281;28;20321;-67
2024/01/04 15:34:27;;;;;;;12.30;1.90;;;;;;;11.00;67.74;99737.34;4985748;28;20684;-66
2024/01/04 15:36:58;;;;;;;9.77;2.00;;;;;;;10.97;67.95;99737.72;4985448;28;20215;-67
2024/01/04 15:39:27;;;;;;;11.63;2.20;;;;;;;10.97;67.92;99737.72;4985583;28;20208;-67
2024/01/04 15:41:57;;;;;;;13.10;2.03;;;;;;;11.01;67.74;99749.63;4985340;28;20217;-67
2024/01/04 15:44:26;;;;;;;6.30;1.80;;;;;;;10.97;67.88;99748.31;4986662;28;20597;-66
2024/01/04 15:46:59;;;;;;;11.30;2.57;;;;;;;10.88;68.17;99750.16;4984913;28;20296;-67
2024/01/04 15:49:31;;;;;;;16.27;2.40;;;;;;;10.81;68.05;99750.00;4985327;28;20216;-66
2024/01/04 15:52:00;;;;;;;14.63;2.27;;;;;;;10.77;68.22;99743.34;4985193;28;20208;-66
2024/01/04 15:54:33;;;;;;;9.07;2.27;;;;;;;10.75;68.55;99740.03;4988971;28;20365;-67
2024/01/04 15:57:01;;;;;;;11.40;2.60;;;;;;;10.68;68.18;99748.81;4987719;28;20216;-67
2024/01/04 15:59:30;;;;;;;11.67;2.53;;;;;;;10.61;68.36;99746.03;4988797;28;20400;-67
2024/01/04 16:02:03;;;;;;;9.03;2.10;;;;;;;10.58;68.49;99741.03;4987383;28;20655;-66
2024/01/04 16:04:35;;;;;;;9.80;2.30;;;;;;;10.57;68.63;99750.81;4988746;28;20232;-67
2024/01/04 16:07:04;;;;;;;13.17;2.80;;;;;;;10.55;68.85;99744.84;4988026;28;20205;-67
2024/01/04 16:09:33;;;;;;;11.87;1.97;;;;;;;10.60;68.87;99743.53;4989265;28;20607;-67
2024/01/04 16:12:02;;;;;;;12.40;2.43;;;;;;;10.53;68.84;99740.72;4989111;28;20308;-67
2024/01/04 16:14:31;;;;;;;14.10;3.10;;;;;;;10.51;68.95;99742.69;4989365;28;20213;-66